Latest Weather Observations for Warwick

IDQ60801

Issued at 5:35 pm EST Saturday 20 September 2014 (issued every 30 minutes, with the page automatically refreshed every 10 minutes)

About weather observations | Map of weather stations | Latest weather observations for QLD | Other Formats
Station Details ID: 041525 Name: WARWICK Lat: -28.21 Lon: 152.10 Height: 475.4 m
Data from the previous 72 hours. | See also: Recent months at Warwick
Date/Time
EST
Temp
°C
App
Temp
°C
Dew
Point
Rel
Hum
%
Delta-T
°C
Wind Press
QNH
hPa
Press
MSL
hPa
Rain
since 9 am
mm
Dir
 
Spd
km/h
Gust
km/h
Spd
kts
Gust
kts
20/05:30pm 18.4 13.7 6.1 44 6.2 SE 20 32 11 17 1020.1 1019.2 0.0
20/05:00pm 20.1 15.9 5.7 39 7.3 SE 17 28 9 15 1019.5 1018.5 0.0
20/04:30pm 21.0 16.2 5.4 36 7.9 SE 20 33 11 18 1018.8 1017.9 0.0
20/04:00pm 22.4 17.4 4.8 31 8.9 SSE 20 32 11 17 1018.3 1017.4 0.0
20/03:30pm 23.0 18.7 -1.8 19 11.1 W 11 17 6 9 1017.9 1017.0 0.0
20/03:00pm 23.2 19.4 -0.9 20 11.0 S 9 20 5 11 1018.0 1017.1 0.0
20/02:30pm 22.7 18.2 0.0 22 10.5 NW 13 19 7 10 1018.0 1017.1 0.0
20/02:00pm 22.7 18.7 0.4 23 10.4 W 11 19 6 10 1018.2 1017.3 0.0
20/01:30pm 21.8 16.5 -0.7 22 10.2 NW 17 28 9 15 1018.6 1017.7 0.0
20/01:00pm 21.1 16.9 1.5 27 9.2 WSW 13 22 7 12 1018.9 1018.0 0.0
20/12:30pm 21.5 18.0 1.2 26 9.5 WNW 9 17 5 9 1019.6 1018.6 0.0
20/12:00pm 21.1 17.4 0.1 24 9.6 W 9 19 5 10 1020.0 1019.1 0.0
20/11:30am 20.2 16.6 0.9 27 8.9 SSW 9 19 5 10 1020.5 1019.6 0.0
20/11:00am 19.4 16.2 4.9 38 7.2 ESE 11 15 6 8 1021.0 1020.1 0.0
20/10:30am 18.3 15.4 6.5 46 6.0 SE 11 20 6 11 1021.5 1020.7 0.0
20/10:00am 17.6 14.9 7.5 51 5.2 SSE 11 19 6 10 1021.9 1021.0 0.0
20/09:30am 17.0 14.1 8.1 55 4.6 SSE 13 22 7 12 1022.2 1021.3 0.0
20/09:00am 16.4 13.7 8.8 60 4.0 SSE 13 22 7 12 1022.3 1021.4 0.0
20/08:30am 15.5 12.4 9.0 65 3.4 SSE 15 24 8 13 1022.4 1021.5 0.0
20/08:00am 14.5 10.7 9.1 70 2.8 SSE 19 28 10 15 1022.2 1021.3 0.0
20/07:30am 14.0 10.9 9.0 72 2.6 SSE 15 24 8 13 1022.0 1021.1 0.0
20/07:00am 12.9 10.7 9.2 78 1.9 SSE 11 19 6 10 1021.7 1020.8 0.0
20/06:30am 10.2 9.7 7.8 85 1.2 CALM 0 0 0 0 1021.3 1020.4 0.0
20/06:00am 10.0 9.3 6.9 81 1.5 NE 0 0 0 0 1020.9 1020.0 0.0
20/05:30am 9.9 8.7 6.3 78 1.7 E 2 6 1 3 1020.4 1019.5 0.0
20/05:00am 8.8 7.8 5.6 80 1.5 CALM 0 0 0 0 1019.9 1019.0 0.0
20/04:30am 7.4 6.1 4.3 81 1.4 CALM 0 0 0 0 1019.5 1018.5 0.0
20/04:00am 10.1 7.8 5.9 75 2.0 N 7 11 4 6 1019.0 1018.1 0.0
20/03:30am 9.2 6.7 3.8 69 2.4 NNE 6 7 3 4 1018.9 1018.0 0.0
20/03:00am 11.4 10.4 5.7 68 2.7 CALM 0 0 0 0 1019.0 1018.1 0.0
20/02:30am 11.4 10.3 5.0 65 3.0 CALM 0 0 0 0 1019.1 1018.2 0.0
20/02:00am 12.5 10.1 4.1 56 3.9 SW 6 9 3 5 1019.5 1018.5 0.0
20/01:30am 12.2 11.0 4.5 59 3.6 CALM 0 0 0 0 1019.5 1018.5 0.0
20/01:00am 12.6 10.2 2.3 49 4.6 N 4 9 2 5 1019.5 1018.5 0.0
20/12:30am 13.8 12.3 2.8 47 5.0 CALM 0 0 0 0 1019.3 1018.4 0.0
20/12:00am 14.0 12.0 0.0 38 6.0 CALM 0 0 0 0 1019.5 1018.5 0.0
 
Date/Time
EST
Temp
°C
App
Temp
°C
Dew
Point
Rel
Hum
%
Delta-T
°C
Wind Press
QNH
hPa
Press
MSL
hPa
Rain
since 9 am
mm
Dir
 
Spd
km/h
Gust
km/h
Spd
kts
Gust
kts
19/11:30pm 14.1 12.1 2.4 45 5.3 E 2 6 1 3 1019.5 1018.5 0.0
19/11:00pm 15.1 11.8 -1.6 31 7.0 ENE 6 9 3 5 1019.7 1018.7 0.0
19/10:30pm 14.8 12.9 0.3 37 6.3 CALM 0 0 0 0 1019.7 1018.7 0.0
19/10:00pm 14.9 11.4 -2.8 29 7.2 ENE 6 9 3 5 1019.9 1019.0 0.0
19/09:30pm 14.8 11.1 -2.6 30 7.1 ENE 7 11 4 6 1020.0 1019.1 0.0
19/09:00pm 16.4 13.4 -1.9 28 7.7 W 4 9 2 5 1019.8 1018.9 0.0
19/08:30pm 16.3 11.4 -3.7 25 8.1 SW 13 17 7 9 1019.7 1018.7 0.0
19/08:00pm 16.8 11.7 -4.8 22 8.6 WSW 13 19 7 10 1019.3 1018.4 0.0
19/07:30pm 17.0 13.5 -1.5 28 7.9 W 7 15 4 8 1019.2 1018.3 0.0
19/07:00pm 17.4 12.4 -4.4 22 8.8 W 13 19 7 10 1018.8 1017.9 0.0
19/06:30pm 16.6 13.2 -0.7 31 7.5 W 7 11 4 6 1018.4 1017.5 0.0
19/06:00pm 17.5 13.6 -1.3 28 8.1 W 9 13 5 7 1017.7 1016.7 0.0
19/05:30pm 18.7 14.6 -0.5 27 8.5 W 11 17 6 9 1017.3 1016.3 0.0
19/05:00pm 20.0 15.5 -3.4 20 9.9 W 11 19 6 10 1016.8 1015.9 0.0
19/04:30pm 22.1 16.4 -7.6 13 11.8 W 15 28 8 15 1016.5 1015.6 0.0
19/04:00pm 22.5 16.7 -8.7 11 12.2 W 15 22 8 12 1016.3 1015.4 0.0
19/03:30pm 22.1 17.0 -4.8 16 11.3 W 13 19 7 10 1016.4 1015.5 0.0
19/03:00pm 21.5 16.3 -6.5 14 11.3 WNW 13 20 7 11 1016.5 1015.6 0.0
19/02:30pm 22.4 16.5 -5.6 15 11.6 W 17 24 9 13 1016.6 1015.7 0.0
19/02:00pm 21.9 16.4 -5.4 15 11.3 WSW 15 24 8 13 1016.9 1016.0 0.0
19/01:30pm 22.3 17.1 -2.9 18 11.0 WSW 15 28 8 15 1017.6 1016.6 0.0
19/01:00pm 22.3 15.6 -4.4 16 11.3 W 22 32 12 17 1018.2 1017.3 0.0
19/12:30pm 21.8 17.1 -2.0 20 10.5 W 13 24 7 13 1018.7 1017.8 0.0
19/12:00pm 21.3 16.5 -2.7 20 10.4 WNW 13 26 7 14 1019.2 1018.3 0.0
19/11:30am 21.4 17.2 -0.8 22 10.0 W 11 22 6 12 1019.5 1018.5 0.0
19/11:00am 20.6 16.1 -3.0 20 10.1 W 11 17 6 9 1020.1 1019.2 0.0
19/10:30am 19.8 15.4 -2.2 22 9.5 WNW 11 19 6 10 1020.5 1019.6 0.0
19/10:00am 19.1 16.6 -0.9 26 8.8 SSE 2 9 1 5 1020.8 1019.9 0.0
19/09:30am 17.3 14.9 2.4 37 6.9 SSE 4 9 2 5 1021.2 1020.3 0.0
19/09:00am 16.3 15.1 4.4 45 5.7 CALM 0 7 0 4 1021.5 1020.7 0.0
19/08:30am 13.8 12.2 4.5 53 4.4 SSE 2 6 1 3 1021.9 1021.0 0.0
19/08:00am 11.1 9.6 3.0 57 3.6 CALM 0 6 0 3 1021.9 1021.0 0.0
19/07:30am 9.5 6.2 2.6 62 3.0 NE 9 11 5 6 1021.5 1020.7 0.0
19/07:00am 5.5 3.2 0.5 70 2.0 E 2 9 1 5 1021.4 1020.5 0.0
19/06:30am 3.0 1.1 0.4 83 1.0 CALM 0 0 0 0 1021.0 1020.1 0.0
19/06:00am 2.1 -0.1 -1.8 75 1.4 CALM 0 0 0 0 1020.8 1019.9 0.0
19/05:30am 1.4 -0.7 -0.5 87 0.7 CALM 0 0 0 0 1020.5 1019.6 0.0
19/05:00am 2.8 -0.5 -0.1 81 1.1 ENE 7 9 4 5 1020.3 1019.4 0.0
19/04:30am 2.7 -0.6 -1.1 76 1.4 NE 6 11 3 6 1020.2 1019.3 0.0
19/04:00am 2.4 -1.0 -1.7 74 1.5 NNE 6 7 3 4 1020.2 1019.3 0.0
19/03:30am 2.7 0.4 -2.3 69 1.8 CALM 0 0 0 0 1019.7 1018.7 0.0
19/03:00am 2.9 0.6 -2.1 69 1.8 CALM 0 0 0 0 1019.8 1018.9 0.0
19/02:30am 7.5 4.2 -0.2 58 3.1 NNE 7 9 4 5 1019.7 1018.7 0.0
19/02:00am 4.6 0.6 -2.2 61 2.5 NNE 9 11 5 6 1020.0 1019.1 0.0
19/01:30am 5.1 1.6 -1.5 62 2.5 NNE 7 9 4 5 1020.2 1019.3 0.0
19/01:00am 5.6 1.4 -3.9 50 3.4 NE 9 11 5 6 1020.5 1019.6 0.0
19/12:30am 5.5 1.7 -5.2 46 3.7 ENE 6 11 3 6 1020.6 1019.7 0.0
19/12:00am 7.3 3.0 -5.1 41 4.4 N 9 13 5 7 1020.7 1019.8 0.0
 
Date/Time
EST
Temp
°C
App
Temp
°C
Dew
Point
Rel
Hum
%
Delta-T
°C
Wind Press
QNH
hPa
Press
MSL
hPa
Rain
since 9 am
mm
Dir
 
Spd
km/h
Gust
km/h
Spd
kts
Gust
kts
18/11:30pm 6.6 3.9 -2.1 54 3.3 NE 2 7 1 4 1020.9 1020.0 0.0
18/11:00pm 5.9 2.7 -3.1 52 3.3 E 4 7 2 4 1020.7 1019.8 0.0
18/10:30pm 7.8 4.6 -3.5 44 4.2 NE 4 7 2 4 1020.5 1019.6 0.0
18/10:00pm 6.9 3.3 -3.4 48 3.8 ENE 6 9 3 5 1020.3 1019.4 0.0
18/09:30pm 9.9 7.3 -4.7 35 5.4 CALM 0 0 0 0 1020.1 1019.2 0.0
18/09:00pm 10.1 7.2 -4.4 36 5.4 NE 2 7 1 4 1020.0 1019.1 0.0
18/08:30pm 9.4 6.7 -2.8 42 4.7 SSE 2 7 1 4 1019.9 1019.0 0.0
18/08:00pm 12.9 9.9 1.8 47 4.9 W 7 9 4 5 1019.5 1018.5 0.0
18/07:30pm 15.0 11.4 -1.8 31 7.0 W 7 11 4 6 1019.0 1018.1 0.0
18/07:00pm 16.3 11.7 -3.7 25 8.1 W 11 15 6 8 1018.6 1017.7 0.0
18/06:30pm 16.9 12.0 -3.3 25 8.3 W 13 17 7 9 1018.3 1017.4 0.0
18/06:00pm 17.5 13.0 -3.3 24 8.6 WNW 11 13 6 7 1018.0 1017.1 0.0
18/05:30pm 18.0 14.1 -1.4 26 8.4 W 9 15 5 8 1017.6 1016.6 0.0
18/05:00pm 20.5 14.9 -6.0 16 10.7 WSW 15 22 8 12 1017.1 1016.2 0.0
18/04:30pm 21.4 14.8 -7.3 14 11.4 WSW 20 28 11 15 1016.8 1015.9 0.0
18/04:00pm 22.0 16.1 -6.1 14 11.5 WSW 17 30 9 16 1016.5 1015.6 0.0
18/03:30pm 22.1 13.8 -8.8 12 12.0 WSW 28 32 15 17 1016.4 1015.5 0.0
18/03:00pm 22.4 16.0 -7.2 13 11.9 WSW 19 30 10 16 1016.4 1015.5 0.0
18/02:30pm 22.1 15.8 -5.9 15 11.5 WSW 19 26 10 14 1016.5 1015.6 0.0
18/02:00pm 22.0 15.5 -5.6 15 11.4 WSW 20 35 11 19 1016.6 1015.7 0.0
18/01:30pm 21.3 15.5 -4.4 17 10.8 WSW 17 32 9 17 1017.0 1016.1 0.0
18/01:00pm 22.0 14.4 -9.8 11 12.1 SSW 24 33 13 18 1017.5 1016.5 0.0
18/12:30pm 20.8 14.7 -3.8 19 10.4 WSW 19 32 10 17 1017.8 1016.8 0.0
18/12:00pm 20.9 15.0 -2.3 21 10.1 WSW 19 26 10 14 1018.4 1017.5 0.0
18/11:30am 20.1 13.7 -4.6 18 10.2 WSW 20 32 11 17 1018.9 1018.0 0.0
18/11:00am 19.6 13.4 -3.5 20 9.7 WSW 20 32 11 17 1019.3 1018.4 0.0
18/10:30am 19.4 11.5 -4.4 19 9.8 WSW 28 43 15 23 1019.8 1018.9 0.0
18/10:00am 18.3 10.4 -4.7 20 9.3 SW 28 41 15 22 1020.1 1019.2 0.0
18/09:30am 18.4 9.9 -3.1 23 9.0 WSW 32 43 17 23 1020.3 1019.4 0.0
18/09:21am 18.1 9.6 -3.7 22 9.0 SW 32 41 17 22 1020.2 1019.3 0.0
18/09:00am 17.2 13.1 -0.4 30 7.7 SW 11 19 6 10 1020.5 1019.6 0.0
18/08:30am 15.5 13.6 0.8 37 6.5 CALM 0 6 0 3 1020.5 1019.6 0.0
18/08:00am 12.0 10.2 3.4 55 3.9 ENE 2 9 1 5 1020.5 1019.6 0.0
18/07:30am 8.1 5.2 1.7 64 2.7 WSW 6 9 3 5 1020.5 1019.6 0.0
18/07:00am 6.5 4.8 1.9 72 1.9 CALM 0 6 0 3 1020.1 1019.2 0.0
18/06:30am 4.0 1.9 1.5 84 1.0 ENE 2 7 1 4 1019.8 1018.9 0.0
18/06:00am 3.0 1.0 0.1 81 1.1 CALM 0 0 0 0 1019.5 1018.5 0.0
18/05:30am 4.4 2.5 0.6 76 1.5 CALM 0 0 0 0 1019.0 1018.1 0.0
18/05:00am 3.5 1.7 1.2 85 0.9 CALM 0 0 0 0 1018.7 1017.8 0.0
18/04:30am 3.3 0.6 0.2 80 1.2 WNW 4 17 2 9 1018.3 1017.4 0.0
18/04:00am 3.9 1.7 0.9 81 1.2 WSW 2 9 1 5 1017.9 1017.0 0.0
18/03:30am 4.8 1.8 1.1 77 1.5 NE 6 9 3 5 1017.8 1016.8 0.0
18/03:00am 5.0 3.2 1.0 75 1.6 CALM 0 0 0 0 1017.7 1016.7 0.0
18/02:30am 7.0 5.3 2.0 70 2.1 CALM 0 0 0 0 1017.5 1016.5 0.0
18/02:00am 6.6 4.8 1.5 70 2.1 CALM 0 0 0 0 1017.5 1016.5 0.0
18/01:30am 6.7 5.0 1.9 71 2.0 CALM 0 0 0 0 1017.1 1016.2 0.0
18/01:00am 7.8 6.2 2.2 68 2.4 CALM 0 0 0 0 1017.3 1016.3 0.0
18/12:30am 10.7 8.8 0.8 50 4.2 CALM 0 0 0 0 1017.1 1016.2 0.0
18/12:00am 9.8 7.9 0.8 53 3.8 CALM 0 0 0 0 1016.9 1016.0 0.0
 
Date/Time
EST
Temp
°C
App
Temp
°C
Dew
Point
Rel
Hum
%
Delta-T
°C
Wind Press
QNH
hPa
Press
MSL
hPa
Rain
since 9 am
mm
Dir
 
Spd
km/h
Gust
km/h
Spd
kts
Gust
kts
17/11:30pm 10.4 8.3 -0.9 45 4.6 CALM 0 0 0 0 1016.8 1015.9 0.0
17/11:00pm 8.7 7.0 1.9 62 2.9 CALM 0 0 0 0 1016.8 1015.9 0.0
17/10:30pm 11.9 10.1 1.3 48 4.6 CALM 0 0 0 0 1016.7 1015.8 0.0
17/10:00pm 11.9 9.1 2.2 51 4.3 WNW 6 7 3 4 1016.6 1015.7 0.0
17/09:30pm 12.8 11.2 2.3 49 4.7 CALM 0 0 0 0 1016.6 1015.7 0.0
17/09:00pm 13.4 10.8 3.4 50 4.6 W 6 7 3 4 1016.4 1015.5 0.0
17/08:30pm 13.8 10.9 2.6 46 5.1 WSW 7 11 4 6 1016.1 1015.2 0.0
17/08:00pm 13.9 12.2 3.8 50 4.7 W 2 7 1 4 1015.9 1014.9 0.0
17/07:30pm 15.8 12.9 2.6 41 6.1 W 7 11 4 6 1015.5 1014.5 0.0
17/07:00pm 16.2 12.9 2.6 40 6.3 W 9 13 5 7 1015.1 1014.1 0.0
17/06:30pm 16.4 13.1 2.6 39 6.4 W 9 15 5 8 1014.6 1013.7 0.0
17/06:00pm 17.4 13.1 0.8 32 7.5 WSW 13 20 7 11 1014.3 1013.4 0.0

Other Formats:

Comma delimited format used in spreadsheet applications
http://www.bom.gov.au/fwo/IDQ60801/IDQ60801.94555.axf

JavaScript Object Notation format (JSON) in row-major order
http://www.bom.gov.au/fwo/IDQ60801/IDQ60801.94555.json